createdAt,value
2023-01-17T00:00:37.045Z,2.12
2023-01-17T00:03:09.759Z,2.14
2023-01-17T00:06:02.167Z,2.10
2023-01-17T00:08:50.696Z,2.07
2023-01-17T00:11:22.867Z,2.11
2023-01-17T00:13:54.997Z,2.21
2023-01-17T00:16:27.051Z,2.17
2023-01-17T00:19:16.552Z,2.18
2023-01-17T00:22:05.938Z,2.21
2023-01-17T00:24:55.506Z,2.29
2023-01-17T00:27:26.407Z,2.27
2023-01-17T00:29:57.513Z,2.23
2023-01-17T00:32:28.105Z,2.28
2023-01-17T00:34:58.939Z,2.29
2023-01-17T00:37:30.084Z,2.17
2023-01-17T00:40:00.815Z,2.12
2023-01-17T00:42:31.857Z,2.05
2023-01-17T00:45:21.292Z,2.01
2023-01-17T00:48:10.619Z,2.02
2023-01-17T00:51:00.109Z,2.01
2023-01-17T00:53:49.247Z,1.99
2023-01-17T00:56:38.646Z,2.01
2023-01-17T00:59:28.017Z,1.97
2023-01-17T01:02:17.824Z,1.95
2023-01-17T01:05:07.489Z,2.00
2023-01-17T01:07:56.655Z,2.01
2023-01-17T01:10:45.647Z,2.01
2023-01-17T01:13:35.437Z,2.02
2023-01-17T01:16:25.390Z,2.04
2023-01-17T01:19:15.158Z,2.06
2023-01-17T01:22:05.060Z,2.08
2023-01-17T01:24:54.496Z,1.99
2023-01-17T01:27:44.016Z,1.99
2023-01-17T01:30:34.248Z,2.03
2023-01-17T01:33:21.183Z,2.00
2023-01-17T01:35:55.374Z,2.00
2023-01-17T01:38:28.047Z,2.04
2023-01-17T01:41:01.005Z,2.11
2023-01-17T01:43:55.894Z,2.14
2023-01-17T01:46:32.035Z,2.18
2023-01-17T01:49:07.247Z,2.15
2023-01-17T01:51:43.446Z,2.19
2023-01-17T01:54:22.342Z,2.16
2023-01-17T01:56:56.327Z,2.14
2023-01-17T01:59:31.062Z,2.15
2023-01-17T02:02:03.994Z,2.14
2023-01-17T02:04:37.347Z,2.14
2023-01-17T02:07:14.166Z,2.07
2023-01-17T02:09:46.889Z,2.08
2023-01-17T02:12:21.828Z,2.09
2023-01-17T02:14:56.818Z,2.05
2023-01-17T02:17:42.916Z,2.03
2023-01-17T02:20:45.870Z,2.02
2023-01-17T02:23:46.909Z,1.96
2023-01-17T02:26:47.688Z,1.90
2023-01-17T02:29:51.937Z,1.91
2023-01-17T02:32:34.992Z,1.94
2023-01-17T02:35:15.351Z,1.94
2023-01-17T02:37:58.373Z,1.97
2023-01-17T02:40:36.618Z,1.96
2023-01-17T02:43:12.468Z,1.98
2023-01-17T02:45:46.129Z,1.96
2023-01-17T02:48:22.788Z,1.93
2023-01-17T02:51:13.406Z,1.91
2023-01-17T02:53:58.470Z,1.87
2023-01-17T02:56:46.142Z,1.90
2023-01-17T02:59:36.059Z,1.88
2023-01-17T03:02:19.016Z,1.88
2023-01-17T03:04:57.536Z,1.88
2023-01-17T03:07:32.387Z,1.89
2023-01-17T03:10:07.818Z,1.89
2023-01-17T03:12:42.409Z,1.93
2023-01-17T03:15:17.877Z,1.95
2023-01-17T03:17:55.384Z,1.97
2023-01-17T03:20:27.908Z,1.98
2023-01-17T03:23:00.667Z,1.90
2023-01-17T03:25:33.364Z,1.91
2023-01-17T03:28:06.483Z,1.88
2023-01-17T03:30:38.993Z,1.85
2023-01-17T03:33:12.016Z,1.89
2023-01-17T03:35:46.268Z,1.89
2023-01-17T03:38:19.980Z,1.88
2023-01-17T03:40:52.581Z,1.83
2023-01-17T03:43:25.396Z,1.80
2023-01-17T03:46:07.232Z,1.80
2023-01-17T03:48:42.919Z,1.80
2023-01-17T03:51:15.331Z,1.81
2023-01-17T03:53:48.382Z,1.78
2023-01-17T03:56:21.143Z,1.77
2023-01-17T03:58:53.940Z,1.77
2023-01-17T04:01:26.854Z,1.78
2023-01-17T04:03:59.804Z,1.76
2023-01-17T04:06:32.217Z,1.77
2023-01-17T04:09:05.183Z,1.77
2023-01-17T04:11:37.885Z,1.77
2023-01-17T04:14:13.819Z,1.75
2023-01-17T04:16:47.396Z,1.76
2023-01-17T04:19:18.774Z,1.72
2023-01-17T04:21:51.335Z,1.70
2023-01-17T04:24:23.928Z,1.74
2023-01-17T04:26:56.715Z,1.73
2023-01-17T04:29:29.537Z,1.76
2023-01-17T04:32:02.187Z,1.76
2023-01-17T04:34:34.989Z,1.73
2023-01-17T04:37:07.767Z,1.79
2023-01-17T04:39:40.438Z,1.73
2023-01-17T04:42:13.326Z,1.72
2023-01-17T04:44:45.999Z,1.73
2023-01-17T04:47:18.700Z,1.73
2023-01-17T04:49:52.057Z,1.70
2023-01-17T04:52:27.898Z,1.72
2023-01-17T04:55:01.069Z,1.74
2023-01-17T04:57:33.779Z,1.77
2023-01-17T05:00:06.957Z,1.80
2023-01-17T05:02:39.842Z,1.80
2023-01-17T05:05:13.698Z,1.77
2023-01-17T05:07:56.905Z,1.78
2023-01-17T05:10:30.060Z,1.79
2023-01-17T05:13:05.065Z,1.76
2023-01-17T05:15:38.599Z,1.76
2023-01-17T05:18:16.174Z,1.72
2023-01-17T05:20:49.237Z,1.70
2023-01-17T05:23:21.790Z,1.70
2023-01-17T05:25:54.370Z,1.65
2023-01-17T05:28:26.821Z,1.64
2023-01-17T05:30:59.641Z,1.65
2023-01-17T05:33:32.390Z,1.69
2023-01-17T05:36:05.297Z,1.69
2023-01-17T05:38:43.981Z,1.70
2023-01-17T05:41:16.635Z,1.72
2023-01-17T05:43:49.469Z,1.70
2023-01-17T05:46:22.143Z,1.70
2023-01-17T05:48:54.935Z,1.68
2023-01-17T05:51:30.508Z,1.66
2023-01-17T05:54:03.202Z,1.65
2023-01-17T05:56:36.240Z,1.69
2023-01-17T05:59:08.875Z,1.76
2023-01-17T06:01:41.715Z,1.77
2023-01-17T06:04:14.888Z,1.76
2023-01-17T06:06:48.672Z,1.74
2023-01-17T06:09:24.999Z,1.77
2023-01-17T06:11:57.636Z,1.75
2023-01-17T06:14:30.641Z,1.72
2023-01-17T06:17:03.629Z,1.68
2023-01-17T06:19:37.719Z,1.63
2023-01-17T06:22:12.157Z,1.62
2023-01-17T06:24:44.760Z,1.61
2023-01-17T06:27:20.465Z,1.61
2023-01-17T06:29:53.309Z,1.66
2023-01-17T06:32:26.140Z,1.71
2023-01-17T06:34:59.000Z,1.70
2023-01-17T06:37:31.926Z,1.69
2023-01-17T06:40:04.947Z,1.68
2023-01-17T06:42:38.252Z,1.68
2023-01-17T06:45:17.478Z,1.67
2023-01-17T06:47:50.995Z,1.73
2023-01-17T06:50:23.726Z,1.76
2023-01-17T06:53:00.506Z,1.79
2023-01-17T06:55:35.565Z,1.80
2023-01-17T06:58:12.295Z,1.84
2023-01-17T07:00:49.780Z,1.88
2023-01-17T07:03:25.676Z,1.88
2023-01-17T07:05:58.327Z,1.86
2023-01-17T07:08:31.660Z,1.86
2023-01-17T07:11:06.158Z,1.82
2023-01-17T07:13:41.599Z,1.79
2023-01-17T07:16:14.526Z,1.79
2023-01-17T07:18:47.357Z,1.82
2023-01-17T07:21:20.352Z,1.81
2023-01-17T07:23:52.927Z,1.84
2023-01-17T07:26:25.892Z,1.90
2023-01-17T07:29:00.082Z,1.97
2023-01-17T07:31:34.774Z,2.04
2023-01-17T07:34:07.661Z,2.09
2023-01-17T07:36:40.350Z,2.13
2023-01-17T07:39:13.220Z,2.16
2023-01-17T07:41:45.702Z,2.19
2023-01-17T07:44:18.847Z,2.20
2023-01-17T07:46:53.051Z,2.21
2023-01-17T07:49:25.888Z,2.23
2023-01-17T07:51:58.297Z,2.24
2023-01-17T07:54:31.161Z,2.27
2023-01-17T07:57:03.742Z,2.30
2023-01-17T07:59:37.545Z,2.33
2023-01-17T08:02:08.259Z,2.37
2023-01-17T08:04:41.135Z,2.37
2023-01-17T08:07:14.399Z,2.41
2023-01-17T08:09:50.182Z,2.44
2023-01-17T08:12:22.948Z,2.54
2023-01-17T08:14:55.119Z,2.59
2023-01-17T08:17:28.796Z,2.63
2023-01-17T08:20:01.697Z,2.70
2023-01-17T08:22:35.555Z,2.70
2023-01-17T08:25:09.746Z,2.72
2023-01-17T08:27:42.684Z,2.78
2023-01-17T08:30:16.107Z,2.80
2023-01-17T08:32:48.826Z,2.81
2023-01-17T08:35:22.034Z,2.81
2023-01-17T08:37:58.037Z,2.84
2023-01-17T08:40:31.236Z,2.83
2023-01-17T08:43:04.895Z,2.84
2023-01-17T08:45:38.471Z,2.85
2023-01-17T08:48:11.597Z,2.86
2023-01-17T08:50:44.149Z,2.86
2023-01-17T08:53:16.718Z,2.87
2023-01-17T08:55:49.476Z,2.91
2023-01-17T08:58:22.081Z,2.93
2023-01-17T09:00:54.732Z,2.95
2023-01-17T09:03:27.627Z,2.97
2023-01-17T09:06:06.761Z,2.97
2023-01-17T09:08:47.317Z,3.01
2023-01-17T09:11:20.563Z,3.06
2023-01-17T09:13:53.191Z,3.09
2023-01-17T09:16:26.090Z,3.15
2023-01-17T09:19:00.432Z,3.18
2023-01-17T09:21:33.164Z,3.18
2023-01-17T09:24:06.152Z,3.20
2023-01-17T09:26:38.887Z,3.24
2023-01-17T09:29:12.324Z,3.29
2023-01-17T09:31:47.445Z,3.34
2023-01-17T09:34:20.375Z,3.39
2023-01-17T09:36:53.089Z,3.45
2023-01-17T09:39:25.832Z,3.48
2023-01-17T09:42:07.538Z,3.52
2023-01-17T09:44:45.849Z,3.54
2023-01-17T09:47:28.319Z,3.60
2023-01-17T09:50:09.499Z,3.68
2023-01-17T09:52:42.116Z,3.73
2023-01-17T09:55:19.478Z,3.81
2023-01-17T09:57:59.140Z,3.84
2023-01-17T10:00:48.130Z,3.79
2023-01-17T10:03:34.204Z,3.82
2023-01-17T10:06:22.077Z,3.88
2023-01-17T10:09:21.329Z,3.87
2023-01-17T10:12:07.146Z,3.94
2023-01-17T10:14:57.913Z,3.97
2023-01-17T10:17:43.911Z,4.04
2023-01-17T10:20:52.808Z,4.04
2023-01-17T10:23:53.706Z,4.04
2023-01-17T10:26:29.582Z,4.08
2023-01-17T10:29:06.385Z,4.02
2023-01-17T10:31:45.196Z,4.02
2023-01-17T10:34:21.740Z,4.09
2023-01-17T10:37:02.077Z,4.07
2023-01-17T10:39:35.578Z,3.97
2023-01-17T10:42:09.327Z,4.12
2023-01-17T10:44:51.822Z,4.21
2023-01-17T10:47:28.260Z,4.40
2023-01-17T10:50:03.696Z,4.59
2023-01-17T10:52:46.912Z,4.72
2023-01-17T10:55:31.540Z,4.82
2023-01-17T10:58:04.844Z,5.07
2023-01-17T11:00:47.312Z,5.32
2023-01-17T11:03:21.397Z,5.42
2023-01-17T11:06:20.649Z,5.47
2023-01-17T11:08:59.696Z,5.61
2023-01-17T11:11:36.682Z,5.85
2023-01-17T11:14:19.985Z,6.10
2023-01-17T11:17:05.299Z,6.37
2023-01-17T11:19:41.599Z,6.58
2023-01-17T11:22:17.995Z,6.61
2023-01-17T11:24:58.337Z,6.53
2023-01-17T11:27:33.698Z,6.60
2023-01-17T11:30:18.478Z,6.61
2023-01-17T11:32:57.347Z,6.51
2023-01-17T11:35:32.405Z,6.51
2023-01-17T11:38:16.664Z,6.66
2023-01-17T11:40:50.586Z,6.84
2023-01-17T11:43:26.604Z,6.92
2023-01-17T11:46:08.214Z,6.84
2023-01-17T11:48:42.032Z,6.88
2023-01-17T11:51:29.302Z,6.82
2023-01-17T11:54:16.895Z,6.87
2023-01-17T11:56:50.959Z,7.07
2023-01-17T11:59:35.836Z,7.29
2023-01-17T12:02:50.816Z,7.31
2023-01-17T12:05:35.055Z,7.29
2023-01-17T12:08:19.955Z,7.28
2023-01-17T12:11:02.594Z,7.34
2023-01-17T12:14:02.276Z,7.30
2023-01-17T12:16:46.847Z,7.19
2023-01-17T12:19:36.937Z,7.22
2023-01-17T12:22:26.131Z,7.20
2023-01-17T12:25:15.194Z,7.17
2023-01-17T12:28:04.196Z,7.14
2023-01-17T12:30:47.134Z,7.06
2023-01-17T12:33:27.267Z,7.03
2023-01-17T12:36:04.540Z,7.02
2023-01-17T12:38:40.982Z,7.00
2023-01-17T12:41:18.475Z,6.96
2023-01-17T12:43:54.663Z,6.92
2023-01-17T12:46:30.774Z,6.91
2023-01-17T12:49:26.056Z,6.86
2023-01-17T12:52:07.057Z,6.80
2023-01-17T12:54:47.563Z,6.81
2023-01-17T12:57:25.183Z,6.78
2023-01-17T13:00:04.405Z,6.73
2023-01-17T13:02:40.839Z,6.65
2023-01-17T13:05:24.107Z,6.54
2023-01-17T13:08:04.838Z,6.56
2023-01-17T13:10:46.617Z,6.56
2023-01-17T13:13:24.538Z,6.57
2023-01-17T13:16:02.608Z,6.52
2023-01-17T13:18:40.186Z,6.53
2023-01-17T13:21:30.000Z,6.53
2023-01-17T13:24:24.447Z,6.42
2023-01-17T13:27:24.558Z,6.44
2023-01-17T13:30:15.664Z,6.45
2023-01-17T13:33:09.184Z,6.44
2023-01-17T13:35:52.947Z,6.38
2023-01-17T13:38:37.691Z,6.37
2023-01-17T13:41:15.852Z,6.21
2023-01-17T13:44:03.246Z,6.12
2023-01-17T13:46:53.726Z,6.15
2023-01-17T13:49:36.586Z,6.11
2023-01-17T13:52:33.170Z,6.10
2023-01-17T13:55:08.645Z,6.06
2023-01-17T13:57:44.555Z,6.02
2023-01-17T14:01:00.087Z,5.98
2023-01-17T14:04:08.281Z,5.94
2023-01-17T14:06:45.205Z,5.88
2023-01-17T14:09:25.590Z,5.86
2023-01-17T14:12:05.337Z,5.82
2023-01-17T14:14:58.419Z,5.80
2023-01-17T14:17:45.898Z,5.79
2023-01-17T14:20:51.973Z,5.76
2023-01-17T14:23:52.178Z,5.72
2023-01-17T14:26:33.062Z,5.70
2023-01-17T14:29:35.536Z,5.69
2023-01-17T14:32:11.730Z,5.60
2023-01-17T14:34:45.129Z,5.50
2023-01-17T14:37:18.657Z,5.47
2023-01-17T14:39:56.898Z,5.37
2023-01-17T14:42:32.419Z,5.33
2023-01-17T14:45:09.009Z,5.29
2023-01-17T14:47:45.897Z,5.27
2023-01-17T14:50:27.181Z,5.24
2023-01-17T14:53:23.567Z,5.22
2023-01-17T14:55:59.252Z,5.20
2023-01-17T14:58:34.076Z,5.17
2023-01-17T15:01:11.719Z,5.16
2023-01-17T15:03:49.039Z,5.13
2023-01-17T15:06:24.132Z,5.00
2023-01-17T15:08:57.437Z,4.84
2023-01-17T15:11:33.495Z,4.57
2023-01-17T15:14:08.538Z,4.45
2023-01-17T15:16:42.131Z,4.45
2023-01-17T15:19:14.479Z,4.39
2023-01-17T15:21:51.369Z,4.20
2023-01-17T15:24:29.847Z,4.15
2023-01-17T15:27:03.201Z,4.05
2023-01-17T15:29:37.701Z,4.00
2023-01-17T15:32:17.268Z,4.00
2023-01-17T15:34:51.924Z,3.91
2023-01-17T15:37:32.985Z,3.85
2023-01-17T15:40:18.914Z,3.73
2023-01-17T15:42:53.706Z,3.68
2023-01-17T15:45:30.153Z,3.58
2023-01-17T15:48:43.112Z,3.60
2023-01-17T15:51:31.445Z,3.58
2023-01-17T15:54:25.188Z,3.54
2023-01-17T15:57:19.282Z,3.53
2023-01-17T15:59:56.915Z,3.50
2023-01-17T16:02:43.381Z,3.45
2023-01-17T16:05:42.917Z,3.39
2023-01-17T16:08:38.866Z,3.10
2023-01-17T16:11:16.829Z,3.00
2023-01-17T16:13:51.600Z,3.03
2023-01-17T16:16:41.558Z,3.03
2023-01-17T16:19:21.878Z,3.02
2023-01-17T16:21:58.189Z,3.05
2023-01-17T16:24:32.878Z,2.98
2023-01-17T16:27:08.558Z,2.95
2023-01-17T16:29:42.101Z,2.93
2023-01-17T16:32:16.864Z,2.91
2023-01-17T16:34:52.401Z,2.86
2023-01-17T16:37:25.329Z,2.85
2023-01-17T16:39:58.837Z,2.81
2023-01-17T16:42:36.097Z,2.67
2023-01-17T16:45:10.687Z,2.63
2023-01-17T16:47:46.875Z,2.63
2023-01-17T16:50:22.766Z,2.58
2023-01-17T16:52:57.687Z,2.57
2023-01-17T16:55:31.291Z,2.57
2023-01-17T16:58:04.616Z,2.51
2023-01-17T17:00:38.738Z,2.38
2023-01-17T17:03:19.767Z,2.30
2023-01-17T17:06:01.907Z,2.34
2023-01-17T17:08:48.901Z,2.41
2023-01-17T17:11:24.867Z,2.43
2023-01-17T17:13:59.429Z,2.46
2023-01-17T17:16:34.279Z,2.43
2023-01-17T17:19:10.894Z,2.42
2023-01-17T17:21:47.000Z,2.42
2023-01-17T17:24:21.253Z,2.44
2023-01-17T17:27:00.585Z,2.43
2023-01-17T17:29:35.925Z,2.46
2023-01-17T17:32:12.772Z,2.44
2023-01-17T17:34:47.695Z,2.41
2023-01-17T17:37:24.314Z,2.41
2023-01-17T17:39:59.793Z,2.45
2023-01-17T17:42:33.147Z,2.51
2023-01-17T17:45:08.916Z,2.50
2023-01-17T17:47:44.377Z,2.50
2023-01-17T17:50:18.936Z,2.49
2023-01-17T17:52:55.407Z,2.45
2023-01-17T17:55:30.338Z,2.48
2023-01-17T17:58:03.780Z,2.42
2023-01-17T18:00:38.049Z,2.38
2023-01-17T18:03:13.980Z,2.41
2023-01-17T18:05:50.310Z,2.38
2023-01-17T18:08:25.538Z,2.43
2023-01-17T18:11:16.337Z,2.48
2023-01-17T18:13:52.491Z,2.48
2023-01-17T18:16:29.074Z,2.50
2023-01-17T18:19:04.717Z,2.52
2023-01-17T18:21:40.096Z,2.54
2023-01-17T18:24:16.104Z,2.56
2023-01-17T18:26:51.153Z,2.60
2023-01-17T18:29:26.079Z,2.63
2023-01-17T18:32:00.832Z,2.64
2023-01-17T18:34:38.108Z,2.55
2023-01-17T18:37:13.077Z,2.51
2023-01-17T18:39:49.547Z,2.54
2023-01-17T18:42:23.528Z,2.47
2023-01-17T18:44:59.452Z,2.41
2023-01-17T18:47:38.602Z,2.45
2023-01-17T18:50:13.818Z,2.53
2023-01-17T18:52:47.960Z,2.53
2023-01-17T18:55:23.035Z,2.48
2023-01-17T18:57:56.350Z,2.35
2023-01-17T19:00:32.416Z,2.27
2023-01-17T19:03:07.591Z,2.27
2023-01-17T19:05:42.256Z,2.28
2023-01-17T19:08:13.997Z,2.29
2023-01-17T19:10:48.917Z,2.29
2023-01-17T19:13:22.984Z,2.33
2023-01-17T19:16:01.584Z,2.41
2023-01-17T19:18:36.920Z,2.45
2023-01-17T19:21:13.336Z,2.50
2023-01-17T19:23:47.347Z,2.55
2023-01-17T19:26:24.699Z,2.60
2023-01-17T19:29:02.449Z,2.62
2023-01-17T19:31:43.953Z,2.61
2023-01-17T19:34:21.880Z,2.60
2023-01-17T19:36:59.659Z,2.61
2023-01-17T19:39:34.346Z,2.60
2023-01-17T19:42:15.743Z,2.58
2023-01-17T19:44:55.667Z,2.55
2023-01-17T19:47:29.458Z,2.59
2023-01-17T19:50:05.529Z,2.60
2023-01-17T19:52:40.361Z,2.62
2023-01-17T19:55:15.118Z,2.64
2023-01-17T19:57:51.057Z,2.69
2023-01-17T20:00:30.241Z,2.72
2023-01-17T20:03:07.194Z,2.71
2023-01-17T20:05:40.720Z,2.67
2023-01-17T20:08:14.917Z,2.59
2023-01-17T20:10:50.946Z,2.58
2023-01-17T20:13:26.556Z,2.56
2023-01-17T20:16:00.767Z,2.62
2023-01-17T20:18:36.250Z,2.63
2023-01-17T20:21:15.857Z,2.62
2023-01-17T20:23:50.527Z,2.59
2023-01-17T20:26:31.324Z,2.49
2023-01-17T20:29:10.765Z,2.45
2023-01-17T20:31:45.393Z,2.36
2023-01-17T20:34:20.163Z,2.31
2023-01-17T20:36:52.978Z,2.25
2023-01-17T20:39:27.999Z,2.21
2023-01-17T20:42:02.362Z,2.26
2023-01-17T20:44:39.010Z,2.26
2023-01-17T20:47:14.891Z,2.26
2023-01-17T20:49:49.159Z,2.24
2023-01-17T20:52:23.604Z,2.30
2023-01-17T20:54:57.361Z,2.26
2023-01-17T20:57:33.924Z,2.23
2023-01-17T21:00:14.978Z,2.26
2023-01-17T21:02:53.026Z,2.28
2023-01-17T21:05:27.897Z,2.31
2023-01-17T21:08:01.063Z,2.33
2023-01-17T21:10:35.611Z,2.29
2023-01-17T21:13:10.068Z,2.38
2023-01-17T21:15:48.849Z,2.37
2023-01-17T21:18:27.305Z,2.31
2023-01-17T21:21:07.751Z,2.24
2023-01-17T21:23:44.688Z,2.23
2023-01-17T21:26:19.887Z,2.26
2023-01-17T21:28:54.564Z,2.34
2023-01-17T21:31:30.131Z,2.33
2023-01-17T21:34:06.604Z,2.34
2023-01-17T21:36:43.245Z,2.35
2023-01-17T21:39:18.426Z,2.32
2023-01-17T21:41:52.076Z,2.31
2023-01-17T21:44:27.264Z,2.43
2023-01-17T21:47:00.285Z,2.45
2023-01-17T21:49:33.932Z,2.50
2023-01-17T21:52:22.418Z,2.50
2023-01-17T21:55:14.217Z,2.49
2023-01-17T21:58:04.369Z,2.47
2023-01-17T22:00:37.815Z,2.55
2023-01-17T22:03:19.799Z,2.52
2023-01-17T22:05:55.250Z,2.53
2023-01-17T22:08:32.371Z,2.54
2023-01-17T22:11:10.157Z,2.53
2023-01-17T22:13:46.256Z,2.52
2023-01-17T22:16:20.968Z,2.50
2023-01-17T22:18:54.216Z,2.50
2023-01-17T22:21:29.139Z,2.48
2023-01-17T22:24:03.836Z,2.46
2023-01-17T22:26:37.445Z,2.50
2023-01-17T22:29:12.036Z,2.48
2023-01-17T22:31:45.024Z,2.47
2023-01-17T22:34:19.203Z,2.44
2023-01-17T22:36:50.284Z,2.45
2023-01-17T22:39:24.006Z,2.39
2023-01-17T22:41:57.493Z,2.40
2023-01-17T22:44:32.025Z,2.37
2023-01-17T22:47:04.937Z,2.36
2023-01-17T22:49:38.511Z,2.37
2023-01-17T22:52:11.717Z,2.39
2023-01-17T22:54:43.066Z,2.37
2023-01-17T22:57:16.939Z,2.34
2023-01-17T22:59:50.517Z,2.36
2023-01-17T23:02:23.789Z,2.29
2023-01-17T23:04:57.007Z,2.24
2023-01-17T23:07:44.584Z,2.27
2023-01-17T23:10:39.481Z,2.30
2023-01-17T23:13:14.064Z,2.31
2023-01-17T23:16:04.683Z,2.29
2023-01-17T23:18:55.525Z,2.25
2023-01-17T23:21:51.306Z,2.19
2023-01-17T23:24:24.381Z,2.18
2023-01-17T23:27:14.692Z,2.20
2023-01-17T23:29:49.235Z,2.20
2023-01-17T23:32:23.466Z,2.20
2023-01-17T23:34:57.000Z,2.21
2023-01-17T23:38:02.883Z,2.24
2023-01-17T23:40:37.605Z,2.19
2023-01-17T23:43:24.872Z,2.22
2023-01-17T23:45:59.085Z,2.18
2023-01-17T23:48:32.227Z,2.15
2023-01-17T23:51:09.007Z,2.14
2023-01-17T23:53:42.772Z,2.14
2023-01-17T23:56:19.438Z,2.13
2023-01-17T23:58:53.401Z,2.16
